createdAt,value
2019-04-06T00:00:00.640Z,100234.77
2019-04-06T00:05:07.764Z,100234.25
2019-04-06T00:10:13.831Z,100231.36
2019-04-06T00:15:19.590Z,100226.52
2019-04-06T00:20:25.296Z,100225.05
2019-04-06T00:25:31.054Z,100227.94
2019-04-06T00:30:38.402Z,100231.45
2019-04-06T00:35:44.196Z,100235.14
2019-04-06T00:40:49.956Z,100236.38
2019-04-06T00:45:55.730Z,100229.03
2019-04-06T00:51:01.475Z,100240.80
2019-04-06T00:56:07.218Z,100234.82
2019-04-06T01:01:12.969Z,100242.73
2019-04-06T01:06:18.791Z,100244.08
2019-04-06T01:11:24.555Z,100239.80
2019-04-06T01:16:30.316Z,100242.26
2019-04-06T01:21:37.169Z,100246.81
2019-04-06T01:26:44.162Z,100254.84
2019-04-06T01:31:49.977Z,100252.67
2019-04-06T01:36:55.734Z,100243.43
2019-04-06T01:42:01.474Z,100245.21
2019-04-06T01:47:07.285Z,100250.80
2019-04-06T01:52:13.059Z,100252.39
2019-04-06T01:57:18.885Z,100251.06
2019-04-06T02:02:32.637Z,100240.23
2019-04-06T02:07:38.491Z,100237.86
2019-04-06T02:12:44.384Z,100238.27
2019-04-06T02:17:50.144Z,100240.30
2019-04-06T02:22:55.793Z,100225.50
2019-04-06T02:28:02.550Z,100235.08
2019-04-06T02:33:09.908Z,100236.27
2019-04-06T02:38:35.456Z,100236.34
2019-04-06T02:43:41.909Z,100231.21
2019-04-06T02:48:47.759Z,100215.65
2019-04-06T02:53:53.513Z,100213.17
2019-04-06T02:58:59.307Z,100204.71
2019-04-06T03:04:05.244Z,100207.32
2019-04-06T03:09:11.986Z,100191.14
2019-04-06T03:14:18.466Z,100190.97
2019-04-06T03:19:24.281Z,100195.42
2019-04-06T03:24:30.073Z,100194.39
2019-04-06T03:29:35.896Z,100194.47
2019-04-06T03:34:41.688Z,100204.76
2019-04-06T03:39:47.477Z,100190.37
2019-04-06T03:44:53.167Z,100196.63
2019-04-06T03:49:58.957Z,100209.44
2019-04-06T03:55:07.265Z,100200.39
2019-04-06T04:00:13.754Z,100202.66
2019-04-06T04:05:19.533Z,100200.39
2019-04-06T04:10:28.116Z,100208.66
2019-04-06T04:15:33.897Z,100218.19
2019-04-06T04:20:39.695Z,100229.28
2019-04-06T04:25:45.696Z,100235.45
2019-04-06T04:30:51.424Z,100240.03
2019-04-06T04:35:57.187Z,100235.67
2019-04-06T04:41:03.271Z,100234.19
2019-04-06T04:46:09.132Z,100244.20
2019-04-06T04:51:14.916Z,100240.81
2019-04-06T04:56:20.770Z,100260.11
2019-04-06T05:01:26.702Z,100265.34
2019-04-06T05:06:32.480Z,100261.64
2019-04-06T05:11:38.562Z,100279.54
2019-04-06T05:16:44.522Z,100280.48
2019-04-06T05:21:50.443Z,100290.04
2019-04-06T05:26:56.199Z,100294.68
2019-04-06T05:32:02.086Z,100308.20
2019-04-06T05:37:07.830Z,100323.11
2019-04-06T05:42:13.624Z,100329.61
2019-04-06T05:47:19.612Z,100335.58
2019-04-06T05:52:25.436Z,100330.12
2019-04-06T05:57:32.124Z,100332.70
2019-04-06T06:02:41.306Z,100350.95
2019-04-06T06:07:46.554Z,100346.85
2019-04-06T06:12:52.254Z,100347.11
2019-04-06T06:17:58.569Z,100352.66
2019-04-06T06:23:04.494Z,100353.23
2019-04-06T06:28:15.056Z,100351.64
2019-04-06T06:33:17.918Z,100358.83
2019-04-06T06:38:24.676Z,100373.03
2019-04-06T06:43:30.430Z,100378.41
2019-04-06T06:48:36.192Z,100384.20
2019-04-06T06:53:42.172Z,100390.56
2019-04-06T06:58:48.150Z,100388.56
2019-04-06T07:03:53.880Z,100399.61
2019-04-06T07:09:01.109Z,100409.88
2019-04-06T07:14:08.511Z,100420.17
2019-04-06T07:19:14.301Z,100425.64
2019-04-06T07:24:20.079Z,100433.13
2019-04-06T07:29:25.860Z,100443.56
2019-04-06T07:34:31.678Z,100447.39
2019-04-06T07:39:37.458Z,100445.38
2019-04-06T07:44:43.228Z,100445.45
2019-04-06T07:49:48.999Z,100453.19
2019-04-06T07:54:54.911Z,100452.38
2019-04-06T08:00:00.767Z,100451.61
2019-04-06T08:05:07.337Z,100451.34
2019-04-06T08:10:13.732Z,100447.63
2019-04-06T08:15:19.748Z,100446.77
2019-04-06T08:20:25.788Z,100454.88
2019-04-06T08:25:31.600Z,100455.94
2019-04-06T08:30:45.792Z,100453.61
2019-04-06T08:35:45.108Z,100451.86
2019-04-06T08:40:50.905Z,100457.48
2019-04-06T08:45:56.721Z,100457.45
2019-04-06T08:51:02.486Z,100464.23
2019-04-06T08:56:08.394Z,100458.10
2019-04-06T09:01:14.316Z,100460.95
2019-04-06T09:06:20.343Z,100462.50
2019-04-06T09:11:26.214Z,100459.45
2019-04-06T09:16:32.183Z,100456.31
2019-04-06T09:21:38.152Z,100452.48
2019-04-06T09:26:43.938Z,100455.89
2019-04-06T09:31:49.775Z,100453.77
2019-04-06T09:36:56.537Z,100451.05
2019-04-06T09:42:02.331Z,100453.97
2019-04-06T09:47:21.880Z,100453.38
2019-04-06T09:52:41.406Z,100456.39
2019-04-06T09:57:48.774Z,100452.86
2019-04-06T10:02:56.170Z,100453.02
2019-04-06T10:08:04.600Z,100449.41
2019-04-06T10:13:27.013Z,100443.55
2019-04-06T10:18:49.518Z,100449.82
2019-04-06T10:23:56.867Z,100446.66
2019-04-06T10:29:19.684Z,100447.01
2019-04-06T10:34:43.273Z,100442.47
2019-04-06T10:40:02.461Z,100443.54
2019-04-06T10:45:09.968Z,100444.41
2019-04-06T10:50:26.235Z,100451.06
2019-04-06T10:55:33.844Z,100437.64
2019-04-06T11:00:58.091Z,100441.78
2019-04-06T11:11:49.285Z,100437.03
2019-04-06T11:16:59.526Z,100441.17
2019-04-06T11:22:24.007Z,100438.73
2019-04-06T11:27:37.653Z,100442.53
2019-04-06T11:33:03.135Z,100440.11
2019-04-06T11:38:10.465Z,100430.67
2019-04-06T11:43:20.841Z,100426.23
2019-04-06T11:48:31.136Z,100432.56
2019-04-06T11:53:41.250Z,100429.73
2019-04-06T11:58:51.531Z,100421.25
2019-04-06T12:04:04.837Z,100432.48
2019-04-06T12:09:12.272Z,100433.20
2019-04-06T12:14:19.751Z,100433.35
2019-04-06T12:19:40.121Z,100423.05
2019-04-06T12:24:56.835Z,100425.91
2019-04-06T12:30:07.375Z,100425.49
2019-04-06T12:35:17.794Z,100417.52
2019-04-06T12:40:31.208Z,100411.33
2019-04-06T12:45:47.778Z,100405.57
2019-04-06T12:50:55.142Z,100400.40
2019-04-06T12:56:02.546Z,100401.94
2019-04-06T13:01:12.611Z,100401.86
2019-04-06T13:06:36.211Z,100397.15
2019-04-06T13:11:43.567Z,100393.89
2019-04-06T13:16:57.153Z,100394.22
2019-04-06T13:22:07.734Z,100388.31
2019-04-06T13:27:15.527Z,100381.61
2019-04-06T13:32:39.501Z,100383.74
2019-04-06T13:38:02.987Z,100375.16
2019-04-06T13:43:13.402Z,100372.53
2019-04-06T13:48:37.735Z,100365.33
2019-04-06T13:54:02.615Z,100364.78
2019-04-06T13:59:10.154Z,100360.47
2019-04-06T14:04:26.907Z,100361.80
2019-04-06T14:09:37.650Z,100356.84
2019-04-06T14:14:54.367Z,100356.20
2019-04-06T14:20:18.171Z,100355.05
2019-04-06T14:25:28.679Z,100364.36
2019-04-06T14:30:52.400Z,100358.69
2019-04-06T14:36:15.157Z,100351.88
2019-04-06T14:41:35.310Z,100339.50
2019-04-06T14:46:52.048Z,100351.61
2019-04-06T14:51:59.420Z,100345.42
2019-04-06T14:57:20.370Z,100354.81
2019-04-06T15:02:30.785Z,100351.10
2019-04-06T15:07:38.199Z,100343.83
2019-04-06T15:12:45.569Z,100339.59
2019-04-06T15:17:55.945Z,100342.25
2019-04-06T15:23:19.802Z,100334.36
2019-04-06T15:28:36.362Z,100330.81
2019-04-06T15:33:44.054Z,100337.89
2019-04-06T15:38:54.477Z,100348.73
2019-04-06T15:44:11.300Z,100340.77
2019-04-06T15:49:25.146Z,100345.01
2019-04-06T15:54:49.147Z,100343.22
2019-04-06T16:00:01.155Z,100348.69
2019-04-06T16:05:11.691Z,100347.02
2019-04-06T16:10:19.157Z,100350.62
2019-04-06T16:15:27.540Z,100345.77
2019-04-06T16:20:41.064Z,100351.81
2019-04-06T16:26:08.424Z,100358.45
2019-04-06T16:31:32.244Z,100350.36
2019-04-06T16:36:57.776Z,100353.73
2019-04-06T16:42:13.173Z,100347.44
2019-04-06T16:47:21.007Z,100356.81
2019-04-06T16:52:34.626Z,100352.63
2019-04-06T16:57:58.003Z,100356.34
2019-04-06T17:03:18.617Z,100353.04
2019-04-06T17:08:38.203Z,100348.23
2019-04-06T17:14:01.698Z,100353.83
2019-04-06T17:19:21.434Z,100350.29
2019-04-06T17:24:44.962Z,100352.69
2019-04-06T17:30:04.732Z,100359.37
2019-04-06T17:35:18.302Z,100357.70
2019-04-06T17:40:25.643Z,100360.95
2019-04-06T17:45:39.569Z,100372.86
2019-04-06T17:50:52.935Z,100368.56
2019-04-06T17:56:03.444Z,100374.80
2019-04-06T18:01:11.021Z,100384.72
2019-04-06T18:06:30.410Z,100392.85
2019-04-06T18:11:40.974Z,100392.87
2019-04-06T18:16:46.895Z,100392.28
2019-04-06T18:21:52.866Z,100396.55
2019-04-06T18:26:58.709Z,100403.03
2019-04-06T18:32:25.588Z,100406.22
2019-04-06T18:37:36.853Z,100403.96
2019-04-06T18:42:42.870Z,100411.08
2019-04-06T18:47:49.559Z,100410.16
2019-04-06T18:52:59.731Z,100407.99
2019-04-06T18:58:12.154Z,100415.58
2019-04-06T19:03:15.392Z,100415.77
2019-04-06T19:08:20.891Z,100419.87
2019-04-06T19:13:26.793Z,100411.01
2019-04-06T19:18:33.375Z,100414.30
2019-04-06T19:23:40.581Z,100416.91
2019-04-06T19:28:46.935Z,100417.59
2019-04-06T19:33:52.888Z,100416.06
2019-04-06T19:38:58.663Z,100418.55
2019-04-06T19:44:06.054Z,100420.53
2019-04-06T19:49:13.029Z,100424.23
2019-04-06T19:54:19.241Z,100429.94
2019-04-06T19:59:25.327Z,100421.35
2019-04-06T20:04:31.170Z,100421.67
2019-04-06T20:09:37.294Z,100421.27
2019-04-06T20:14:43.088Z,100425.59
2019-04-06T20:19:49.726Z,100427.47
2019-04-06T20:24:56.946Z,100422.09
2019-04-06T20:30:03.719Z,100421.27
2019-04-06T20:35:10.894Z,100429.12
2019-04-06T20:40:17.605Z,100426.09
2019-04-06T20:45:23.944Z,100423.41
2019-04-06T20:50:30.405Z,100414.40
2019-04-06T20:55:36.828Z,100412.10
2019-04-06T21:00:43.720Z,100409.92
2019-04-06T21:05:49.860Z,100408.11
2019-04-06T21:10:56.724Z,100415.80
2019-04-06T21:16:03.454Z,100413.19
2019-04-06T21:21:11.656Z,100407.72
2019-04-06T21:26:18.129Z,100410.05
2019-04-06T21:31:24.361Z,100405.20
2019-04-06T21:36:30.342Z,100402.42
2019-04-06T21:41:38.341Z,100402.29
2019-04-06T21:46:44.635Z,100399.63
2019-04-06T21:51:50.592Z,100397.56
2019-04-06T21:56:57.159Z,100394.08
2019-04-06T22:02:04.099Z,100394.27
2019-04-06T22:07:09.969Z,100391.78
2019-04-06T22:12:16.308Z,100386.42
2019-04-06T22:17:22.389Z,100390.14
2019-04-06T22:22:28.793Z,100380.94
2019-04-06T22:27:34.662Z,100378.05
2019-04-06T22:32:41.634Z,100368.94
2019-04-06T22:37:47.510Z,100362.99
2019-04-06T22:42:54.512Z,100364.39
2019-04-06T22:48:00.306Z,100357.22
2019-04-06T22:53:07.797Z,100350.74
2019-04-06T22:58:14.067Z,100351.67
2019-04-06T23:03:37.722Z,100349.52
2019-04-06T23:08:44.808Z,100348.02
2019-04-06T23:13:50.680Z,100343.24
2019-04-06T23:18:57.160Z,100355.02
2019-04-06T23:24:05.611Z,100346.59
2019-04-06T23:29:11.370Z,100342.72
2019-04-06T23:34:17.130Z,100342.09
2019-04-06T23:39:22.912Z,100333.27
2019-04-06T23:44:28.637Z,100338.11
2019-04-06T23:49:34.980Z,100329.16
2019-04-06T23:54:40.773Z,100334.17
2019-04-06T23:59:46.585Z,100333.44
